Tisul, Russia
Current Conditions -  °F | °C
As of 8:30 PM on Thursday 30 Oct 2014 (Local Time) from UNEE Reporting Station
Snow Showers Snow Showers  
Wind Chill: 16°   Ceiling: 1300
Heat Index: 28°   Visibility: 4mi
Dew Point: 28°   Wind: 18mph
Humidity: 100%   Direction: 210°SSW
Pressure: 30.06"   Gusts: NA
Location:  55.76°N, 88.31°E
Report Text: UNEE 301330Z 21008MPS 7000 -SHSN OVC013CB M02/M02 Q1018 NOSIGRMK QFE740 23451032
Loading
Personal Weather Stations






























Interactive Weather Map New forecast layout! Learn more

10-Day Weather Forecast

Advertisements
Track Severe Weather on mobile